sensor_id;sensor_type;location;lat;lon;timestamp;P1;durP1;ratioP1;P2;durP2;ratioP2
9256;SDS011;4665;51.368;6.782;2023-02-28T00:00:19;5.20;;;4.63;;
9256;SDS011;4665;51.368;6.782;2023-02-28T00:02:45;4.90;;;4.27;;
9256;SDS011;4665;51.368;6.782;2023-02-28T00:05:13;6.17;;;4.60;;
9256;SDS011;4665;51.368;6.782;2023-02-28T00:07:42;5.93;;;4.50;;
9256;SDS011;4665;51.368;6.782;2023-02-28T00:10:08;5.07;;;4.57;;
9256;SDS011;4665;51.368;6.782;2023-02-28T00:12:35;5.00;;;4.30;;
9256;SDS011;4665;51.368;6.782;2023-02-28T00:15:02;6.27;;;4.43;;
9256;SDS011;4665;51.368;6.782;2023-02-28T00:17:30;4.67;;;4.20;;
9256;SDS011;4665;51.368;6.782;2023-02-28T00:19:56;5.63;;;4.43;;
9256;SDS011;4665;51.368;6.782;2023-02-28T00:22:21;5.07;;;4.43;;
9256;SDS011;4665;51.368;6.782;2023-02-28T00:24:47;6.40;;;5.10;;
9256;SDS011;4665;51.368;6.782;2023-02-28T00:27:16;6.47;;;4.37;;
9256;SDS011;4665;51.368;6.782;2023-02-28T00:29:41;5.00;;;4.40;;
9256;SDS011;4665;51.368;6.782;2023-02-28T00:32:07;7.73;;;5.13;;
9256;SDS011;4665;51.368;6.782;2023-02-28T00:34:32;7.60;;;5.20;;
9256;SDS011;4665;51.368;6.782;2023-02-28T00:37:03;4.70;;;4.30;;
9256;SDS011;4665;51.368;6.782;2023-02-28T00:39:34;6.37;;;4.73;;
9256;SDS011;4665;51.368;6.782;2023-02-28T00:42:01;7.00;;;4.73;;
9256;SDS011;4665;51.368;6.782;2023-02-28T00:44:28;4.90;;;4.40;;
9256;SDS011;4665;51.368;6.782;2023-02-28T00:46:53;4.50;;;4.17;;
9256;SDS011;4665;51.368;6.782;2023-02-28T00:49:20;6.73;;;5.17;;
9256;SDS011;4665;51.368;6.782;2023-02-28T00:51:46;6.00;;;4.43;;
9256;SDS011;4665;51.368;6.782;2023-02-28T00:54:11;6.67;;;4.43;;
9256;SDS011;4665;51.368;6.782;2023-02-28T00:56:37;5.20;;;4.70;;
9256;SDS011;4665;51.368;6.782;2023-02-28T00:59:02;4.93;;;4.50;;
9256;SDS011;4665;51.368;6.782;2023-02-28T01:01:28;5.23;;;4.27;;
9256;SDS011;4665;51.368;6.782;2023-02-28T01:03:53;5.43;;;4.40;;
9256;SDS011;4665;51.368;6.782;2023-02-28T01:06:22;6.90;;;4.67;;
9256;SDS011;4665;51.368;6.782;2023-02-28T01:08:50;5.60;;;4.30;;
9256;SDS011;4665;51.368;6.782;2023-02-28T01:11:16;5.33;;;3.70;;
9256;SDS011;4665;51.368;6.782;2023-02-28T01:13:43;4.73;;;3.70;;
9256;SDS011;4665;51.368;6.782;2023-02-28T01:16:09;5.43;;;4.30;;
9256;SDS011;4665;51.368;6.782;2023-02-28T01:18:35;5.10;;;4.17;;
9256;SDS011;4665;51.368;6.782;2023-02-28T01:21:09;4.67;;;3.87;;
9256;SDS011;4665;51.368;6.782;2023-02-28T01:23:42;5.23;;;3.80;;
9256;SDS011;4665;51.368;6.782;2023-02-28T01:26:11;4.93;;;3.73;;
9256;SDS011;4665;51.368;6.782;2023-02-28T01:28:38;5.63;;;3.87;;
9256;SDS011;4665;51.368;6.782;2023-02-28T01:31:04;3.83;;;3.30;;
9256;SDS011;4665;51.368;6.782;2023-02-28T01:33:30;4.10;;;3.60;;
9256;SDS011;4665;51.368;6.782;2023-02-28T01:35:59;3.60;;;3.30;;
9256;SDS011;4665;51.368;6.782;2023-02-28T01:38:26;4.93;;;3.77;;
9256;SDS011;4665;51.368;6.782;2023-02-28T01:40:54;5.30;;;3.30;;
9256;SDS011;4665;51.368;6.782;2023-02-28T01:43:24;3.93;;;3.47;;
9256;SDS011;4665;51.368;6.782;2023-02-28T01:45:55;4.10;;;3.37;;
9256;SDS011;4665;51.368;6.782;2023-02-28T01:48:26;4.67;;;3.30;;
9256;SDS011;4665;51.368;6.782;2023-02-28T01:50:56;3.77;;;3.43;;
9256;SDS011;4665;51.368;6.782;2023-02-28T01:53:30;5.87;;;3.50;;
9256;SDS011;4665;51.368;6.782;2023-02-28T01:56:03;3.67;;;3.37;;
9256;SDS011;4665;51.368;6.782;2023-02-28T01:58:31;4.27;;;3.87;;
9256;SDS011;4665;51.368;6.782;2023-02-28T02:00:57;4.57;;;3.60;;
9256;SDS011;4665;51.368;6.782;2023-02-28T02:03:22;4.90;;;3.73;;
9256;SDS011;4665;51.368;6.782;2023-02-28T02:05:48;5.00;;;3.90;;
9256;SDS011;4665;51.368;6.782;2023-02-28T02:08:19;5.87;;;3.67;;
9256;SDS011;4665;51.368;6.782;2023-02-28T02:10:52;4.00;;;3.00;;
9256;SDS011;4665;51.368;6.782;2023-02-28T02:18:46;4.10;;;3.70;;
9256;SDS011;4665;51.368;6.782;2023-02-28T02:46:58;3.83;;;3.47;;
9256;SDS011;4665;51.368;6.782;2023-02-28T02:49:32;4.10;;;3.70;;
9256;SDS011;4665;51.368;6.782;2023-02-28T02:52:02;3.53;;;3.23;;
9256;SDS011;4665;51.368;6.782;2023-02-28T02:54:35;5.60;;;3.67;;
9256;SDS011;4665;51.368;6.782;2023-02-28T02:57:08;3.50;;;3.20;;
9256;SDS011;4665;51.368;6.782;2023-02-28T02:59:42;4.30;;;3.90;;
9256;SDS011;4665;51.368;6.782;2023-02-28T03:02:09;4.30;;;3.40;;
9256;SDS011;4665;51.368;6.782;2023-02-28T03:04:46;3.87;;;3.57;;
9256;SDS011;4665;51.368;6.782;2023-02-28T03:07:17;5.07;;;3.67;;
9256;SDS011;4665;51.368;6.782;2023-02-28T03:09:49;3.60;;;3.30;;
9256;SDS011;4665;51.368;6.782;2023-02-28T03:12:19;3.80;;;3.43;;
9256;SDS011;4665;51.368;6.782;2023-02-28T03:22:51;5.30;;;4.00;;
9256;SDS011;4665;51.368;6.782;2023-02-28T03:28:00;4.80;;;4.27;;
9256;SDS011;4665;51.368;6.782;2023-02-28T03:30:58;5.37;;;3.73;;
9256;SDS011;4665;51.368;6.782;2023-02-28T03:33:38;4.03;;;3.60;;
9256;SDS011;4665;51.368;6.782;2023-02-28T03:36:12;4.23;;;3.83;;
9256;SDS011;4665;51.368;6.782;2023-02-28T03:38:49;3.80;;;3.50;;
9256;SDS011;4665;51.368;6.782;2023-02-28T03:41:23;4.20;;;3.80;;
9256;SDS011;4665;51.368;6.782;2023-02-28T03:46:52;4.20;;;3.53;;
9256;SDS011;4665;51.368;6.782;2023-02-28T03:49:40;4.70;;;3.80;;
9256;SDS011;4665;51.368;6.782;2023-02-28T03:52:12;5.93;;;3.30;;
9256;SDS011;4665;51.368;6.782;2023-02-28T03:54:50;4.43;;;3.77;;
9256;SDS011;4665;51.368;6.782;2023-02-28T04:00:08;4.17;;;3.40;;
9256;SDS011;4665;51.368;6.782;2023-02-28T04:02:34;3.90;;;3.50;;
9256;SDS011;4665;51.368;6.782;2023-02-28T04:05:04;4.43;;;3.43;;
9256;SDS011;4665;51.368;6.782;2023-02-28T04:07:30;5.47;;;3.93;;
9256;SDS011;4665;51.368;6.782;2023-02-28T04:09:59;3.87;;;3.50;;
9256;SDS011;4665;51.368;6.782;2023-02-28T04:12:25;3.90;;;3.50;;
9256;SDS011;4665;51.368;6.782;2023-02-28T04:14:53;4.37;;;3.80;;
9256;SDS011;4665;51.368;6.782;2023-02-28T04:17:19;5.67;;;3.63;;
9256;SDS011;4665;51.368;6.782;2023-02-28T04:19:50;4.63;;;3.60;;
9256;SDS011;4665;51.368;6.782;2023-02-28T04:22:15;3.43;;;3.13;;
9256;SDS011;4665;51.368;6.782;2023-02-28T04:24:43;3.47;;;3.13;;
9256;SDS011;4665;51.368;6.782;2023-02-28T04:27:09;3.47;;;3.00;;
9256;SDS011;4665;51.368;6.782;2023-02-28T04:29:34;2.90;;;2.70;;
9256;SDS011;4665;51.368;6.782;2023-02-28T04:32:00;5.73;;;3.67;;
9256;SDS011;4665;51.368;6.782;2023-02-28T04:34:27;3.50;;;3.20;;
9256;SDS011;4665;51.368;6.782;2023-02-28T04:36:56;4.40;;;3.40;;
9256;SDS011;4665;51.368;6.782;2023-02-28T04:39:22;3.50;;;3.20;;
9256;SDS011;4665;51.368;6.782;2023-02-28T04:41:49;4.00;;;2.93;;
9256;SDS011;4665;51.368;6.782;2023-02-28T04:44:15;4.80;;;3.37;;
9256;SDS011;4665;51.368;6.782;2023-02-28T04:46:44;3.77;;;2.80;;
9256;SDS011;4665;51.368;6.782;2023-02-28T04:49:22;3.83;;;3.13;;
9256;SDS011;4665;51.368;6.782;2023-02-28T04:51:47;4.07;;;2.80;;
9256;SDS011;4665;51.368;6.782;2023-02-28T04:54:15;3.30;;;3.00;;
9256;SDS011;4665;51.368;6.782;2023-02-28T04:56:44;3.30;;;3.00;;
9256;SDS011;4665;51.368;6.782;2023-02-28T04:59:15;3.67;;;3.07;;
9256;SDS011;4665;51.368;6.782;2023-02-28T05:01:40;3.23;;;2.90;;
9256;SDS011;4665;51.368;6.782;2023-02-28T05:04:15;4.20;;;3.33;;
9256;SDS011;4665;51.368;6.782;2023-02-28T05:06:54;7.37;;;3.40;;
9256;SDS011;4665;51.368;6.782;2023-02-28T05:09:22;3.10;;;2.80;;
9256;SDS011;4665;51.368;6.782;2023-02-28T05:11:47;5.43;;;3.17;;
9256;SDS011;4665;51.368;6.782;2023-02-28T05:14:13;2.90;;;2.60;;
9256;SDS011;4665;51.368;6.782;2023-02-28T05:16:42;3.07;;;2.87;;
9256;SDS011;4665;51.368;6.782;2023-02-28T05:19:07;4.00;;;2.87;;
9256;SDS011;4665;51.368;6.782;2023-02-28T05:21:51;2.83;;;2.63;;
9256;SDS011;4665;51.368;6.782;2023-02-28T05:24:19;5.20;;;3.17;;
9256;SDS011;4665;51.368;6.782;2023-02-28T05:26:48;3.27;;;2.97;;
9256;SDS011;4665;51.368;6.782;2023-02-28T05:29:15;2.83;;;2.60;;
9256;SDS011;4665;51.368;6.782;2023-02-28T05:31:40;2.97;;;2.50;;
9256;SDS011;4665;51.368;6.782;2023-02-28T05:34:06;4.50;;;3.00;;
9256;SDS011;4665;51.368;6.782;2023-02-28T05:36:32;6.77;;;2.90;;
9256;SDS011;4665;51.368;6.782;2023-02-28T05:39:05;3.57;;;3.10;;
9256;SDS011;4665;51.368;6.782;2023-02-28T05:41:32;3.70;;;2.83;;
9256;SDS011;4665;51.368;6.782;2023-02-28T05:43:58;4.20;;;2.93;;
9256;SDS011;4665;51.368;6.782;2023-02-28T05:46:26;4.40;;;3.03;;
9256;SDS011;4665;51.368;6.782;2023-02-28T05:48:52;4.07;;;3.03;;
9256;SDS011;4665;51.368;6.782;2023-02-28T05:51:28;3.77;;;2.80;;
9256;SDS011;4665;51.368;6.782;2023-02-28T05:53:58;4.47;;;3.20;;
9256;SDS011;4665;51.368;6.782;2023-02-28T05:56:25;5.77;;;3.20;;
9256;SDS011;4665;51.368;6.782;2023-02-28T05:58:54;3.97;;;2.97;;
9256;SDS011;4665;51.368;6.782;2023-02-28T06:04:01;3.30;;;2.80;;
9256;SDS011;4665;51.368;6.782;2023-02-28T06:06:28;3.13;;;2.83;;
9256;SDS011;4665;51.368;6.782;2023-02-28T06:08:54;3.40;;;2.40;;
9256;SDS011;4665;51.368;6.782;2023-02-28T06:11:26;4.07;;;3.13;;
9256;SDS011;4665;51.368;6.782;2023-02-28T06:13:56;3.40;;;3.00;;
9256;SDS011;4665;51.368;6.782;2023-02-28T06:16:28;2.97;;;2.67;;
9256;SDS011;4665;51.368;6.782;2023-02-28T06:18:57;3.50;;;2.70;;
9256;SDS011;4665;51.368;6.782;2023-02-28T06:21:23;4.40;;;2.80;;
9256;SDS011;4665;51.368;6.782;2023-02-28T06:23:49;2.90;;;2.43;;
9256;SDS011;4665;51.368;6.782;2023-02-28T06:26:18;4.57;;;2.83;;
9256;SDS011;4665;51.368;6.782;2023-02-28T06:28:44;3.30;;;3.00;;
9256;SDS011;4665;51.368;6.782;2023-02-28T06:31:12;3.70;;;3.03;;
9256;SDS011;4665;51.368;6.782;2023-02-28T06:33:40;3.37;;;2.90;;
9256;SDS011;4665;51.368;6.782;2023-02-28T06:36:06;4.60;;;3.43;;
9256;SDS011;4665;51.368;6.782;2023-02-28T06:38:32;3.47;;;3.17;;
9256;SDS011;4665;51.368;6.782;2023-02-28T06:41:04;4.50;;;3.30;;
9256;SDS011;4665;51.368;6.782;2023-02-28T06:43:32;3.70;;;3.40;;
9256;SDS011;4665;51.368;6.782;2023-02-28T06:46:05;3.70;;;3.40;;
9256;SDS011;4665;51.368;6.782;2023-02-28T06:48:33;4.77;;;4.30;;
9256;SDS011;4665;51.368;6.782;2023-02-28T06:51:09;4.40;;;4.00;;
9256;SDS011;4665;51.368;6.782;2023-02-28T06:53:42;5.50;;;4.07;;
9256;SDS011;4665;51.368;6.782;2023-02-28T06:56:09;4.43;;;3.97;;
9256;SDS011;4665;51.368;6.782;2023-02-28T06:58:36;6.23;;;4.13;;
9256;SDS011;4665;51.368;6.782;2023-02-28T07:01:04;5.13;;;4.03;;
9256;SDS011;4665;51.368;6.782;2023-02-28T07:03:34;4.93;;;3.60;;
9256;SDS011;4665;51.368;6.782;2023-02-28T07:06:10;3.30;;;3.00;;
9256;SDS011;4665;51.368;6.782;2023-02-28T07:08:36;5.40;;;3.23;;
9256;SDS011;4665;51.368;6.782;2023-02-28T07:11:02;6.00;;;3.87;;
9256;SDS011;4665;51.368;6.782;2023-02-28T07:13:36;6.27;;;3.40;;
9256;SDS011;4665;51.368;6.782;2023-02-28T07:16:05;4.97;;;3.50;;
9256;SDS011;4665;51.368;6.782;2023-02-28T07:18:37;4.47;;;3.10;;
9256;SDS011;4665;51.368;6.782;2023-02-28T07:21:06;3.70;;;2.83;;
9256;SDS011;4665;51.368;6.782;2023-02-28T07:23:36;5.03;;;3.40;;
9256;SDS011;4665;51.368;6.782;2023-02-28T07:26:07;3.87;;;3.50;;
9256;SDS011;4665;51.368;6.782;2023-02-28T07:28:39;6.97;;;3.20;;
9256;SDS011;4665;51.368;6.782;2023-02-28T07:31:12;5.97;;;3.80;;
9256;SDS011;4665;51.368;6.782;2023-02-28T07:33:41;4.13;;;3.10;;
9256;SDS011;4665;51.368;6.782;2023-02-28T07:36:16;3.83;;;3.30;;
9256;SDS011;4665;51.368;6.782;2023-02-28T07:38:44;3.33;;;3.03;;
9256;SDS011;4665;51.368;6.782;2023-02-28T07:41:13;4.00;;;3.43;;
9256;SDS011;4665;51.368;6.782;2023-02-28T07:43:45;3.37;;;3.03;;
9256;SDS011;4665;51.368;6.782;2023-02-28T07:46:12;4.03;;;3.10;;
9256;SDS011;4665;51.368;6.782;2023-02-28T07:48:40;4.30;;;3.70;;
9256;SDS011;4665;51.368;6.782;2023-02-28T07:51:06;3.60;;;3.10;;
9256;SDS011;4665;51.368;6.782;2023-02-28T07:53:32;3.63;;;3.23;;
9256;SDS011;4665;51.368;6.782;2023-02-28T07:55:58;3.63;;;3.13;;
9256;SDS011;4665;51.368;6.782;2023-02-28T07:58:26;7.10;;;3.30;;
9256;SDS011;4665;51.368;6.782;2023-02-28T08:00:52;6.17;;;3.53;;
9256;SDS011;4665;51.368;6.782;2023-02-28T08:03:18;3.27;;;2.97;;
9256;SDS011;4665;51.368;6.782;2023-02-28T08:05:45;6.13;;;3.20;;
9256;SDS011;4665;51.368;6.782;2023-02-28T08:08:11;3.40;;;3.07;;
9256;SDS011;4665;51.368;6.782;2023-02-28T08:10:36;3.50;;;2.73;;
9256;SDS011;4665;51.368;6.782;2023-02-28T08:13:02;3.50;;;2.90;;
9256;SDS011;4665;51.368;6.782;2023-02-28T08:15:27;5.60;;;2.93;;
9256;SDS011;4665;51.368;6.782;2023-02-28T08:17:53;5.57;;;3.00;;
9256;SDS011;4665;51.368;6.782;2023-02-28T08:20:21;4.07;;;3.10;;
9256;SDS011;4665;51.368;6.782;2023-02-28T08:22:47;2.90;;;2.70;;
9256;SDS011;4665;51.368;6.782;2023-02-28T08:25:12;4.03;;;3.03;;
9256;SDS011;4665;51.368;6.782;2023-02-28T08:27:37;3.33;;;3.03;;
9256;SDS011;4665;51.368;6.782;2023-02-28T08:30:03;3.33;;;3.03;;
9256;SDS011;4665;51.368;6.782;2023-02-28T08:32:29;4.13;;;3.00;;
9256;SDS011;4665;51.368;6.782;2023-02-28T08:34:54;3.30;;;3.00;;
9256;SDS011;4665;51.368;6.782;2023-02-28T08:37:20;2.90;;;2.70;;
9256;SDS011;4665;51.368;6.782;2023-02-28T08:39:45;4.20;;;2.50;;
9256;SDS011;4665;51.368;6.782;2023-02-28T08:42:11;2.90;;;2.70;;
9256;SDS011;4665;51.368;6.782;2023-02-28T08:44:36;2.77;;;2.57;;
9256;SDS011;4665;51.368;6.782;2023-02-28T08:47:02;2.77;;;2.57;;
9256;SDS011;4665;51.368;6.782;2023-02-28T08:49:27;2.87;;;2.67;;
9256;SDS011;4665;51.368;6.782;2023-02-28T08:51:53;2.67;;;2.47;;
9256;SDS011;4665;51.368;6.782;2023-02-28T08:54:20;3.53;;;2.50;;
9256;SDS011;4665;51.368;6.782;2023-02-28T08:56:46;3.90;;;2.43;;
9256;SDS011;4665;51.368;6.782;2023-02-28T08:59:14;2.53;;;2.20;;
9256;SDS011;4665;51.368;6.782;2023-02-28T09:01:40;6.47;;;2.43;;
9256;SDS011;4665;51.368;6.782;2023-02-28T09:04:06;2.60;;;2.40;;
9256;SDS011;4665;51.368;6.782;2023-02-28T09:06:33;3.00;;;2.70;;
9256;SDS011;4665;51.368;6.782;2023-02-28T09:09:00;4.47;;;2.60;;
9256;SDS011;4665;51.368;6.782;2023-02-28T09:11:26;5.23;;;2.80;;
9256;SDS011;4665;51.368;6.782;2023-02-28T09:13:52;3.53;;;2.73;;
9256;SDS011;4665;51.368;6.782;2023-02-28T09:16:18;2.80;;;2.50;;
9256;SDS011;4665;51.368;6.782;2023-02-28T09:18:44;2.90;;;2.40;;
9256;SDS011;4665;51.368;6.782;2023-02-28T09:21:11;3.40;;;2.37;;
9256;SDS011;4665;51.368;6.782;2023-02-28T09:23:39;3.40;;;2.47;;
9256;SDS011;4665;51.368;6.782;2023-02-28T09:26:13;6.23;;;3.10;;
9256;SDS011;4665;51.368;6.782;2023-02-28T09:28:42;4.20;;;2.50;;
9256;SDS011;4665;51.368;6.782;2023-02-28T09:31:18;2.20;;;2.00;;
9256;SDS011;4665;51.368;6.782;2023-02-28T09:33:49;2.10;;;2.00;;
9256;SDS011;4665;51.368;6.782;2023-02-28T09:36:15;2.70;;;2.13;;
9256;SDS011;4665;51.368;6.782;2023-02-28T09:38:41;2.50;;;2.30;;
9256;SDS011;4665;51.368;6.782;2023-02-28T09:41:42;2.57;;;2.10;;
9256;SDS011;4665;51.368;6.782;2023-02-28T09:44:05;2.00;;;1.90;;
9256;SDS011;4665;51.368;6.782;2023-02-28T09:46:42;2.30;;;2.10;;
9256;SDS011;4665;51.368;6.782;2023-02-28T09:49:19;4.63;;;2.20;;
9256;SDS011;4665;51.368;6.782;2023-02-28T09:52:05;3.10;;;2.73;;
9256;SDS011;4665;51.368;6.782;2023-02-28T09:54:35;1.90;;;1.80;;
9256;SDS011;4665;51.368;6.782;2023-02-28T09:59:39;5.50;;;2.13;;
9256;SDS011;4665;51.368;6.782;2023-02-28T10:10:22;1.80;;;1.70;;
9256;SDS011;4665;51.368;6.782;2023-02-28T10:12:48;1.90;;;1.80;;
9256;SDS011;4665;51.368;6.782;2023-02-28T10:15:18;1.97;;;1.87;;
9256;SDS011;4665;51.368;6.782;2023-02-28T10:17:48;3.03;;;1.80;;
9256;SDS011;4665;51.368;6.782;2023-02-28T10:20:20;1.87;;;1.77;;
9256;SDS011;4665;51.368;6.782;2023-02-28T10:25:32;1.90;;;1.80;;
9256;SDS011;4665;51.368;6.782;2023-02-28T10:30:37;1.83;;;1.73;;
9256;SDS011;4665;51.368;6.782;2023-02-28T10:33:08;5.37;;;2.27;;
9256;SDS011;4665;51.368;6.782;2023-02-28T10:35:44;1.97;;;1.87;;
9256;SDS011;4665;51.368;6.782;2023-02-28T10:38:13;1.83;;;1.60;;
9256;SDS011;4665;51.368;6.782;2023-02-28T10:40:41;1.83;;;1.60;;
9256;SDS011;4665;51.368;6.782;2023-02-28T10:45:39;1.80;;;1.70;;
9256;SDS011;4665;51.368;6.782;2023-02-28T10:58:27;1.90;;;1.77;;
9256;SDS011;4665;51.368;6.782;2023-02-28T11:00:58;1.80;;;1.70;;
9256;SDS011;4665;51.368;6.782;2023-02-28T11:03:32;1.70;;;1.60;;
9256;SDS011;4665;51.368;6.782;2023-02-28T11:06:04;2.27;;;1.70;;
9256;SDS011;4665;51.368;6.782;2023-02-28T11:08:45;1.40;;;1.40;;
9256;SDS011;4665;51.368;6.782;2023-02-28T11:11:12;1.67;;;1.57;;
9256;SDS011;4665;51.368;6.782;2023-02-28T11:13:38;1.63;;;1.50;;
9256;SDS011;4665;51.368;6.782;2023-02-28T11:16:05;1.60;;;1.50;;
9256;SDS011;4665;51.368;6.782;2023-02-28T11:21:28;1.57;;;1.20;;
9256;SDS011;4665;51.368;6.782;2023-02-28T11:24:19;1.70;;;1.60;;
9256;SDS011;4665;51.368;6.782;2023-02-28T11:26:46;1.77;;;1.67;;
9256;SDS011;4665;51.368;6.782;2023-02-28T11:29:17;1.70;;;1.60;;
9256;SDS011;4665;51.368;6.782;2023-02-28T11:34:46;2.03;;;1.83;;
9256;SDS011;4665;51.368;6.782;2023-02-28T11:37:24;1.83;;;1.30;;
9256;SDS011;4665;51.368;6.782;2023-02-28T11:39:52;1.73;;;1.63;;
9256;SDS011;4665;51.368;6.782;2023-02-28T11:56:01;1.90;;;1.80;;
9256;SDS011;4665;51.368;6.782;2023-02-28T11:58:54;1.87;;;1.67;;
9256;SDS011;4665;51.368;6.782;2023-02-28T12:04:42;2.30;;;1.90;;
9256;SDS011;4665;51.368;6.782;2023-02-28T12:10:25;3.60;;;1.90;;
9256;SDS011;4665;51.368;6.782;2023-02-28T12:27:05;1.80;;;1.70;;
9256;SDS011;4665;51.368;6.782;2023-02-28T12:32:51;1.90;;;1.80;;
9256;SDS011;4665;51.368;6.782;2023-02-28T12:35:23;1.60;;;1.50;;
9256;SDS011;4665;51.368;6.782;2023-02-28T12:38:10;1.90;;;1.80;;
9256;SDS011;4665;51.368;6.782;2023-02-28T12:40:45;2.30;;;1.90;;
9256;SDS011;4665;51.368;6.782;2023-02-28T12:43:16;1.90;;;1.80;;
9256;SDS011;4665;51.368;6.782;2023-02-28T12:48:24;2.37;;;2.17;;
9256;SDS011;4665;51.368;6.782;2023-02-28T12:51:05;1.77;;;1.67;;
9256;SDS011;4665;51.368;6.782;2023-02-28T12:56:13;1.97;;;1.80;;
9256;SDS011;4665;51.368;6.782;2023-02-28T13:09:14;2.30;;;2.10;;
9256;SDS011;4665;51.368;6.782;2023-02-28T13:14:27;2.33;;;2.10;;
9256;SDS011;4665;51.368;6.782;2023-02-28T13:17:01;2.00;;;1.90;;
9256;SDS011;4665;51.368;6.782;2023-02-28T13:19:37;2.20;;;2.00;;
9256;SDS011;4665;51.368;6.782;2023-02-28T13:24:50;2.00;;;1.90;;
9256;SDS011;4665;51.368;6.782;2023-02-28T13:27:23;2.00;;;1.90;;
9256;SDS011;4665;51.368;6.782;2023-02-28T13:29:50;3.17;;;2.17;;
9256;SDS011;4665;51.368;6.782;2023-02-28T13:32:31;2.53;;;2.13;;
9256;SDS011;4665;51.368;6.782;2023-02-28T13:43:02;2.20;;;2.10;;
9256;SDS011;4665;51.368;6.782;2023-02-28T13:45:32;4.27;;;2.37;;
9256;SDS011;4665;51.368;6.782;2023-02-28T13:48:04;2.10;;;2.00;;
9256;SDS011;4665;51.368;6.782;2023-02-28T13:50:41;2.20;;;2.10;;
9256;SDS011;4665;51.368;6.782;2023-02-28T13:53:19;2.60;;;2.40;;
9256;SDS011;4665;51.368;6.782;2023-02-28T13:59:12;2.13;;;2.03;;
9256;SDS011;4665;51.368;6.782;2023-02-28T14:01:46;2.63;;;1.90;;
9256;SDS011;4665;51.368;6.782;2023-02-28T14:07:26;2.10;;;2.00;;
9256;SDS011;4665;51.368;6.782;2023-02-28T14:09:58;2.53;;;2.10;;
9256;SDS011;4665;51.368;6.782;2023-02-28T14:18:05;2.50;;;2.30;;
9256;SDS011;4665;51.368;6.782;2023-02-28T14:20:39;2.10;;;2.00;;
9256;SDS011;4665;51.368;6.782;2023-02-28T14:25:44;2.50;;;2.30;;
9256;SDS011;4665;51.368;6.782;2023-02-28T14:41:36;4.47;;;2.33;;
9256;SDS011;4665;51.368;6.782;2023-02-28T14:44:14;2.37;;;2.17;;
9256;SDS011;4665;51.368;6.782;2023-02-28T14:46:49;2.67;;;2.47;;
9256;SDS011;4665;51.368;6.782;2023-02-28T14:54:42;2.60;;;2.40;;
9256;SDS011;4665;51.368;6.782;2023-02-28T14:57:26;2.73;;;2.53;;
9256;SDS011;4665;51.368;6.782;2023-02-28T14:59:57;2.43;;;2.23;;
9256;SDS011;4665;51.368;6.782;2023-02-28T15:02:25;3.43;;;2.77;;
9256;SDS011;4665;51.368;6.782;2023-02-28T15:07:34;2.83;;;2.50;;
9256;SDS011;4665;51.368;6.782;2023-02-28T15:10:07;5.77;;;2.50;;
9256;SDS011;4665;51.368;6.782;2023-02-28T15:12:35;2.80;;;2.60;;
9256;SDS011;4665;51.368;6.782;2023-02-28T15:15:02;7.40;;;3.00;;
9256;SDS011;4665;51.368;6.782;2023-02-28T15:17:27;2.80;;;2.60;;
9256;SDS011;4665;51.368;6.782;2023-02-28T15:19:53;3.03;;;2.53;;
9256;SDS011;4665;51.368;6.782;2023-02-28T15:22:38;2.90;;;2.60;;
9256;SDS011;4665;51.368;6.782;2023-02-28T15:25:04;2.67;;;2.47;;
9256;SDS011;4665;51.368;6.782;2023-02-28T15:27:31;2.80;;;2.60;;
9256;SDS011;4665;51.368;6.782;2023-02-28T15:29:59;2.60;;;2.50;;
9256;SDS011;4665;51.368;6.782;2023-02-28T15:32:31;2.60;;;2.40;;
9256;SDS011;4665;51.368;6.782;2023-02-28T15:37:56;2.60;;;2.50;;
9256;SDS011;4665;51.368;6.782;2023-02-28T15:40:27;2.87;;;2.67;;
9256;SDS011;4665;51.368;6.782;2023-02-28T15:48:35;2.33;;;2.23;;
9256;SDS011;4665;51.368;6.782;2023-02-28T15:53:29;2.87;;;2.60;;
9256;SDS011;4665;51.368;6.782;2023-02-28T15:56:02;2.90;;;2.70;;
9256;SDS011;4665;51.368;6.782;2023-02-28T15:58:30;2.60;;;2.40;;
9256;SDS011;4665;51.368;6.782;2023-02-28T16:01:38;3.70;;;2.73;;
9256;SDS011;4665;51.368;6.782;2023-02-28T16:03:50;2.97;;;2.77;;
9256;SDS011;4665;51.368;6.782;2023-02-28T16:08:58;2.50;;;2.30;;
9256;SDS011;4665;51.368;6.782;2023-02-28T16:11:24;2.97;;;2.77;;
9256;SDS011;4665;51.368;6.782;2023-02-28T16:13:50;2.50;;;2.40;;
9256;SDS011;4665;51.368;6.782;2023-02-28T16:16:20;3.07;;;2.47;;
9256;SDS011;4665;51.368;6.782;2023-02-28T16:18:49;2.90;;;2.70;;
9256;SDS011;4665;51.368;6.782;2023-02-28T16:21:15;2.77;;;2.53;;
9256;SDS011;4665;51.368;6.782;2023-02-28T16:23:40;3.10;;;2.90;;
9256;SDS011;4665;51.368;6.782;2023-02-28T16:26:06;2.83;;;2.63;;
9256;SDS011;4665;51.368;6.782;2023-02-28T16:28:34;3.00;;;2.77;;
9256;SDS011;4665;51.368;6.782;2023-02-28T16:31:02;2.90;;;2.70;;
9256;SDS011;4665;51.368;6.782;2023-02-28T16:33:33;2.93;;;2.63;;
9256;SDS011;4665;51.368;6.782;2023-02-28T16:35:59;2.60;;;2.40;;
9256;SDS011;4665;51.368;6.782;2023-02-28T16:38:25;2.80;;;2.60;;
9256;SDS011;4665;51.368;6.782;2023-02-28T16:40:51;2.93;;;2.70;;
9256;SDS011;4665;51.368;6.782;2023-02-28T16:43:23;2.83;;;2.57;;
9256;SDS011;4665;51.368;6.782;2023-02-28T16:45:55;3.13;;;2.90;;
9256;SDS011;4665;51.368;6.782;2023-02-28T16:48:22;2.90;;;2.70;;
9256;SDS011;4665;51.368;6.782;2023-02-28T16:50:48;4.27;;;2.60;;
9256;SDS011;4665;51.368;6.782;2023-02-28T16:53:13;3.17;;;2.97;;
9256;SDS011;4665;51.368;6.782;2023-02-28T16:55:39;3.00;;;2.80;;
9256;SDS011;4665;51.368;6.782;2023-02-28T16:58:05;3.20;;;2.90;;
9256;SDS011;4665;51.368;6.782;2023-02-28T17:00:31;3.10;;;2.77;;
9256;SDS011;4665;51.368;6.782;2023-02-28T17:02:57;3.43;;;3.00;;
9256;SDS011;4665;51.368;6.782;2023-02-28T17:05:27;3.30;;;2.90;;
9256;SDS011;4665;51.368;6.782;2023-02-28T17:08:01;3.67;;;2.70;;
9256;SDS011;4665;51.368;6.782;2023-02-28T17:10:26;3.43;;;2.90;;
9256;SDS011;4665;51.368;6.782;2023-02-28T17:12:52;3.20;;;2.90;;
9256;SDS011;4665;51.368;6.782;2023-02-28T17:15:18;3.60;;;3.30;;
9256;SDS011;4665;51.368;6.782;2023-02-28T17:17:45;4.13;;;3.00;;
9256;SDS011;4665;51.368;6.782;2023-02-28T17:20:18;4.37;;;3.17;;
9256;SDS011;4665;51.368;6.782;2023-02-28T17:22:49;3.50;;;2.93;;
9256;SDS011;4665;51.368;6.782;2023-02-28T17:25:15;4.37;;;3.27;;
9256;SDS011;4665;51.368;6.782;2023-02-28T17:27:41;3.50;;;3.20;;
9256;SDS011;4665;51.368;6.782;2023-02-28T17:32:48;3.70;;;3.07;;
9256;SDS011;4665;51.368;6.782;2023-02-28T17:35:14;3.73;;;3.03;;
9256;SDS011;4665;51.368;6.782;2023-02-28T17:37:40;3.87;;;3.20;;
9256;SDS011;4665;51.368;6.782;2023-02-28T17:40:06;3.27;;;3.07;;
9256;SDS011;4665;51.368;6.782;2023-02-28T17:42:37;3.67;;;3.20;;
9256;SDS011;4665;51.368;6.782;2023-02-28T17:45:03;4.33;;;2.70;;
9256;SDS011;4665;51.368;6.782;2023-02-28T17:47:28;3.47;;;3.17;;
9256;SDS011;4665;51.368;6.782;2023-02-28T17:49:54;3.63;;;3.00;;
9256;SDS011;4665;51.368;6.782;2023-02-28T17:52:19;3.83;;;2.90;;
9256;SDS011;4665;51.368;6.782;2023-02-28T17:54:46;3.00;;;2.70;;
9256;SDS011;4665;51.368;6.782;2023-02-28T17:57:13;3.10;;;2.80;;
9256;SDS011;4665;51.368;6.782;2023-02-28T17:59:42;3.30;;;3.00;;
9256;SDS011;4665;51.368;6.782;2023-02-28T18:02:09;4.13;;;3.27;;
9256;SDS011;4665;51.368;6.782;2023-02-28T18:04:37;3.40;;;3.10;;
9256;SDS011;4665;51.368;6.782;2023-02-28T18:07:02;3.27;;;3.03;;
9256;SDS011;4665;51.368;6.782;2023-02-28T18:09:28;4.33;;;3.30;;
9256;SDS011;4665;51.368;6.782;2023-02-28T18:11:54;3.50;;;3.20;;
9256;SDS011;4665;51.368;6.782;2023-02-28T18:14:22;4.27;;;3.50;;
9256;SDS011;4665;51.368;6.782;2023-02-28T18:16:49;4.70;;;3.73;;
9256;SDS011;4665;51.368;6.782;2023-02-28T18:19:15;4.33;;;3.90;;
9256;SDS011;4665;51.368;6.782;2023-02-28T18:21:45;4.13;;;3.73;;
9256;SDS011;4665;51.368;6.782;2023-02-28T18:24:13;4.87;;;4.13;;
9256;SDS011;4665;51.368;6.782;2023-02-28T18:26:39;5.03;;;4.53;;
9256;SDS011;4665;51.368;6.782;2023-02-28T18:29:05;6.03;;;4.93;;
9256;SDS011;4665;51.368;6.782;2023-02-28T18:31:32;6.40;;;5.40;;
9256;SDS011;4665;51.368;6.782;2023-02-28T18:33:58;7.10;;;5.13;;
9256;SDS011;4665;51.368;6.782;2023-02-28T18:36:24;7.33;;;5.47;;
9256;SDS011;4665;51.368;6.782;2023-02-28T18:38:49;5.80;;;4.80;;
9256;SDS011;4665;51.368;6.782;2023-02-28T18:41:16;5.10;;;4.60;;
9256;SDS011;4665;51.368;6.782;2023-02-28T18:43:44;5.27;;;4.10;;
9256;SDS011;4665;51.368;6.782;2023-02-28T18:46:11;4.57;;;4.17;;
9256;SDS011;4665;51.368;6.782;2023-02-28T18:48:38;5.20;;;4.50;;
9256;SDS011;4665;51.368;6.782;2023-02-28T18:51:07;4.87;;;4.03;;